sensor_id;sensor_type;location;lat;lon;timestamp;temperature;humidity
49236;DHT22;35067;48.134;8.378;2023-02-28T00:00:10;-3.40;92.70
49236;DHT22;35067;48.134;8.378;2023-02-28T00:01:17;-3.30;92.70
49236;DHT22;35067;48.134;8.378;2023-02-28T00:02:23;-3.30;92.10
49236;DHT22;35067;48.134;8.378;2023-02-28T00:03:28;-3.20;91.80
49236;DHT22;35067;48.134;8.378;2023-02-28T00:04:34;-3.10;91.40
49236;DHT22;35067;48.134;8.378;2023-02-28T00:05:39;-3.00;91.10
49236;DHT22;35067;48.134;8.378;2023-02-28T00:06:44;-3.10;91.10
49236;DHT22;35067;48.134;8.378;2023-02-28T00:07:50;-3.20;91.00
49236;DHT22;35067;48.134;8.378;2023-02-28T00:08:55;-3.20;91.40
49236;DHT22;35067;48.134;8.378;2023-02-28T00:10:01;-3.20;91.50
49236;DHT22;35067;48.134;8.378;2023-02-28T00:11:10;-3.20;91.80
49236;DHT22;35067;48.134;8.378;2023-02-28T00:12:14;-3.10;92.10
49236;DHT22;35067;48.134;8.378;2023-02-28T00:13:15;-3.10;91.70
49236;DHT22;35067;48.134;8.378;2023-02-28T00:14:21;-3.10;91.30
49236;DHT22;35067;48.134;8.378;2023-02-28T00:15:27;-3.10;91.10
49236;DHT22;35067;48.134;8.378;2023-02-28T00:16:32;-3.20;91.50
49236;DHT22;35067;48.134;8.378;2023-02-28T00:17:38;-3.20;91.80
49236;DHT22;35067;48.134;8.378;2023-02-28T00:18:43;-3.20;91.80
49236;DHT22;35067;48.134;8.378;2023-02-28T00:19:50;-3.10;91.60
49236;DHT22;35067;48.134;8.378;2023-02-28T00:20:55;-3.10;91.60
49236;DHT22;35067;48.134;8.378;2023-02-28T00:22:00;-3.00;91.40
49236;DHT22;35067;48.134;8.378;2023-02-28T00:23:04;-3.00;91.30
49236;DHT22;35067;48.134;8.378;2023-02-28T00:24:09;-3.00;91.80
49236;DHT22;35067;48.134;8.378;2023-02-28T00:25:18;-3.20;91.90
49236;DHT22;35067;48.134;8.378;2023-02-28T00:26:21;-3.20;92.60
49236;DHT22;35067;48.134;8.378;2023-02-28T00:27:26;-3.20;92.60
49236;DHT22;35067;48.134;8.378;2023-02-28T00:28:32;-3.20;92.50
49236;DHT22;35067;48.134;8.378;2023-02-28T00:29:37;-3.30;92.50
49236;DHT22;35067;48.134;8.378;2023-02-28T00:30:43;-3.20;92.60
49236;DHT22;35067;48.134;8.378;2023-02-28T00:31:48;-3.20;92.50
49236;DHT22;35067;48.134;8.378;2023-02-28T00:32:54;-3.20;92.80
49236;DHT22;35067;48.134;8.378;2023-02-28T00:33:59;-3.10;93.00
49236;DHT22;35067;48.134;8.378;2023-02-28T00:35:05;-3.10;92.50
49236;DHT22;35067;48.134;8.378;2023-02-28T00:36:11;-3.10;92.50
49236;DHT22;35067;48.134;8.378;2023-02-28T00:37:15;-3.20;92.60
49236;DHT22;35067;48.134;8.378;2023-02-28T00:38:20;-3.10;92.50
49236;DHT22;35067;48.134;8.378;2023-02-28T00:39:26;-3.10;92.50
49236;DHT22;35067;48.134;8.378;2023-02-28T00:40:31;-3.20;92.60
49236;DHT22;35067;48.134;8.378;2023-02-28T00:41:37;-3.10;92.60
49236;DHT22;35067;48.134;8.378;2023-02-28T00:42:42;-3.10;92.50
49236;DHT22;35067;48.134;8.378;2023-02-28T00:43:48;-3.10;93.00
49236;DHT22;35067;48.134;8.378;2023-02-28T00:44:53;-3.00;92.90
49236;DHT22;35067;48.134;8.378;2023-02-28T00:45:59;-3.00;92.80
49236;DHT22;35067;48.134;8.378;2023-02-28T00:47:04;-2.90;92.50
49236;DHT22;35067;48.134;8.378;2023-02-28T00:48:09;-2.90;92.20
49236;DHT22;35067;48.134;8.378;2023-02-28T00:49:14;-2.90;92.10
49236;DHT22;35067;48.134;8.378;2023-02-28T00:50:20;-2.90;92.30
49236;DHT22;35067;48.134;8.378;2023-02-28T00:51:25;-3.00;92.50
49236;DHT22;35067;48.134;8.378;2023-02-28T00:52:31;-3.00;92.60
49236;DHT22;35067;48.134;8.378;2023-02-28T00:53:36;-3.00;92.50
49236;DHT22;35067;48.134;8.378;2023-02-28T00:54:42;-3.00;92.50
49236;DHT22;35067;48.134;8.378;2023-02-28T00:55:49;-3.00;92.70
49236;DHT22;35067;48.134;8.378;2023-02-28T00:56:53;-3.00;92.50
49236;DHT22;35067;48.134;8.378;2023-02-28T00:57:59;-2.90;92.40
49236;DHT22;35067;48.134;8.378;2023-02-28T00:59:04;-2.80;92.10
49236;DHT22;35067;48.134;8.378;2023-02-28T01:00:09;-2.90;92.10
49236;DHT22;35067;48.134;8.378;2023-02-28T01:01:14;-3.00;92.50
49236;DHT22;35067;48.134;8.378;2023-02-28T01:02:21;-3.10;92.70
49236;DHT22;35067;48.134;8.378;2023-02-28T01:03:26;-3.10;93.00
49236;DHT22;35067;48.134;8.378;2023-02-28T01:04:31;-3.00;93.10
49236;DHT22;35067;48.134;8.378;2023-02-28T01:05:37;-3.10;93.70
49236;DHT22;35067;48.134;8.378;2023-02-28T01:06:42;-3.10;93.60
49236;DHT22;35067;48.134;8.378;2023-02-28T01:07:48;-3.20;93.80
49236;DHT22;35067;48.134;8.378;2023-02-28T01:08:53;-3.20;94.10
49236;DHT22;35067;48.134;8.378;2023-02-28T01:09:59;-3.20;93.90
49236;DHT22;35067;48.134;8.378;2023-02-28T01:11:12;-3.10;93.90
49236;DHT22;35067;48.134;8.378;2023-02-28T01:12:15;-3.10;93.70
49236;DHT22;35067;48.134;8.378;2023-02-28T01:13:20;-3.00;93.70
49236;DHT22;35067;48.134;8.378;2023-02-28T01:14:25;-3.00;93.40
49236;DHT22;35067;48.134;8.378;2023-02-28T01:15:31;-3.00;93.20
49236;DHT22;35067;48.134;8.378;2023-02-28T01:16:36;-3.00;93.20
49236;DHT22;35067;48.134;8.378;2023-02-28T01:17:41;-2.90;93.00
49236;DHT22;35067;48.134;8.378;2023-02-28T01:18:47;-2.90;93.10
49236;DHT22;35067;48.134;8.378;2023-02-28T01:19:54;-3.00;93.00
49236;DHT22;35067;48.134;8.378;2023-02-28T01:20:58;-2.90;93.10
49236;DHT22;35067;48.134;8.378;2023-02-28T01:22:06;-2.80;93.20
49236;DHT22;35067;48.134;8.378;2023-02-28T01:23:09;-2.70;92.80
49236;DHT22;35067;48.134;8.378;2023-02-28T01:24:14;-2.70;92.50
49236;DHT22;35067;48.134;8.378;2023-02-28T01:25:20;-2.80;92.50
49236;DHT22;35067;48.134;8.378;2023-02-28T01:26:25;-2.70;92.50
49236;DHT22;35067;48.134;8.378;2023-02-28T01:27:26;-2.90;93.00
49236;DHT22;35067;48.134;8.378;2023-02-28T01:28:32;-2.90;93.00
49236;DHT22;35067;48.134;8.378;2023-02-28T01:29:37;-2.90;93.30
49236;DHT22;35067;48.134;8.378;2023-02-28T01:30:48;-2.90;93.10
49236;DHT22;35067;48.134;8.378;2023-02-28T01:31:52;-2.90;93.00
49236;DHT22;35067;48.134;8.378;2023-02-28T01:32:58;-2.90;92.90
49236;DHT22;35067;48.134;8.378;2023-02-28T01:34:03;-2.90;93.40
49236;DHT22;35067;48.134;8.378;2023-02-28T01:35:08;-3.00;93.40
49236;DHT22;35067;48.134;8.378;2023-02-28T01:36:12;-2.90;93.50
49236;DHT22;35067;48.134;8.378;2023-02-28T01:37:18;-2.90;93.60
49236;DHT22;35067;48.134;8.378;2023-02-28T01:38:24;-2.80;93.30
49236;DHT22;35067;48.134;8.378;2023-02-28T01:39:29;-2.90;93.50
49236;DHT22;35067;48.134;8.378;2023-02-28T01:40:35;-2.90;93.40
49236;DHT22;35067;48.134;8.378;2023-02-28T01:41:40;-2.90;93.50
49236;DHT22;35067;48.134;8.378;2023-02-28T01:42:46;-2.90;93.50
49236;DHT22;35067;48.134;8.378;2023-02-28T01:43:58;-3.00;94.10
49236;DHT22;35067;48.134;8.378;2023-02-28T01:45:30;-3.00;93.90
49236;DHT22;35067;48.134;8.378;2023-02-28T01:46:36;-2.90;93.50
49236;DHT22;35067;48.134;8.378;2023-02-28T01:47:42;-2.80;93.40
49236;DHT22;35067;48.134;8.378;2023-02-28T01:48:54;-2.90;93.30
49236;DHT22;35067;48.134;8.378;2023-02-28T01:50:09;-2.90;93.40
49236;DHT22;35067;48.134;8.378;2023-02-28T01:51:22;-2.90;93.70
49236;DHT22;35067;48.134;8.378;2023-02-28T01:52:32;-3.00;93.90
49236;DHT22;35067;48.134;8.378;2023-02-28T01:53:44;-3.10;94.10
49236;DHT22;35067;48.134;8.378;2023-02-28T01:54:55;-3.10;94.20
49236;DHT22;35067;48.134;8.378;2023-02-28T01:56:04;-3.20;94.60
49236;DHT22;35067;48.134;8.378;2023-02-28T01:57:13;-3.20;95.00
49236;DHT22;35067;48.134;8.378;2023-02-28T01:58:22;-3.10;94.60
49236;DHT22;35067;48.134;8.378;2023-02-28T01:59:42;-3.10;94.40
49236;DHT22;35067;48.134;8.378;2023-02-28T02:00:54;-3.00;94.20
49236;DHT22;35067;48.134;8.378;2023-02-28T02:02:01;-3.00;94.10
49236;DHT22;35067;48.134;8.378;2023-02-28T02:03:09;-2.90;93.90
49236;DHT22;35067;48.134;8.378;2023-02-28T02:04:17;-2.80;94.00
49236;DHT22;35067;48.134;8.378;2023-02-28T02:05:27;-2.90;94.20
49236;DHT22;35067;48.134;8.378;2023-02-28T02:06:44;-2.90;94.40
49236;DHT22;35067;48.134;8.378;2023-02-28T02:07:54;-2.90;94.20
49236;DHT22;35067;48.134;8.378;2023-02-28T02:08:56;-3.00;94.20
49236;DHT22;35067;48.134;8.378;2023-02-28T02:10:10;-2.90;94.20
49236;DHT22;35067;48.134;8.378;2023-02-28T02:11:27;-3.00;94.40
49236;DHT22;35067;48.134;8.378;2023-02-28T02:13:10;-3.00;94.90
49236;DHT22;35067;48.134;8.378;2023-02-28T02:14:38;-3.00;95.10
49236;DHT22;35067;48.134;8.378;2023-02-28T02:17:45;-3.00;95.60
49236;DHT22;35067;48.134;8.378;2023-02-28T02:28:17;-3.20;98.10
49236;DHT22;35067;48.134;8.378;2023-02-28T02:36:23;-3.40;99.90
49236;DHT22;35067;48.134;8.378;2023-02-28T02:37:58;-3.40;99.90
49236;DHT22;35067;48.134;8.378;2023-02-28T02:39:15;-3.40;99.90
49236;DHT22;35067;48.134;8.378;2023-02-28T02:40:35;-3.30;99.90
49236;DHT22;35067;48.134;8.378;2023-02-28T02:41:52;-3.30;99.90
49236;DHT22;35067;48.134;8.378;2023-02-28T02:43:08;-3.30;99.70
49236;DHT22;35067;48.134;8.378;2023-02-28T02:44:24;-3.30;99.80
49236;DHT22;35067;48.134;8.378;2023-02-28T02:45:40;-3.40;99.90
49236;DHT22;35067;48.134;8.378;2023-02-28T02:46:52;-3.40;99.90
49236;DHT22;35067;48.134;8.378;2023-02-28T02:48:01;-3.30;99.90
49236;DHT22;35067;48.134;8.378;2023-02-28T02:49:07;-3.20;99.80
49236;DHT22;35067;48.134;8.378;2023-02-28T02:50:22;-3.20;99.60
49236;DHT22;35067;48.134;8.378;2023-02-28T02:51:32;-3.30;99.20
49236;DHT22;35067;48.134;8.378;2023-02-28T02:52:42;-3.40;99.50
49236;DHT22;35067;48.134;8.378;2023-02-28T02:54:08;-3.40;99.90
49236;DHT22;35067;48.134;8.378;2023-02-28T02:55:18;-3.40;99.90
49236;DHT22;35067;48.134;8.378;2023-02-28T02:56:28;-3.50;99.90
49236;DHT22;35067;48.134;8.378;2023-02-28T02:57:43;-3.50;99.90
49236;DHT22;35067;48.134;8.378;2023-02-28T02:58:53;-3.50;99.90
49236;DHT22;35067;48.134;8.378;2023-02-28T03:00:03;-3.40;99.90
49236;DHT22;35067;48.134;8.378;2023-02-28T03:01:14;-3.50;99.90
49236;DHT22;35067;48.134;8.378;2023-02-28T03:02:33;-3.50;99.90
49236;DHT22;35067;48.134;8.378;2023-02-28T03:03:40;-3.40;99.90
49236;DHT22;35067;48.134;8.378;2023-02-28T03:04:51;-3.40;99.90
49236;DHT22;35067;48.134;8.378;2023-02-28T03:06:00;-3.40;99.90
49236;DHT22;35067;48.134;8.378;2023-02-28T03:07:04;-3.30;99.90
49236;DHT22;35067;48.134;8.378;2023-02-28T03:08:08;-3.40;99.90
49236;DHT22;35067;48.134;8.378;2023-02-28T03:09:14;-3.40;99.90
49236;DHT22;35067;48.134;8.378;2023-02-28T03:10:38;-3.40;99.90
49236;DHT22;35067;48.134;8.378;2023-02-28T03:11:46;-3.40;99.90
49236;DHT22;35067;48.134;8.378;2023-02-28T03:13:00;-3.30;99.90
49236;DHT22;35067;48.134;8.378;2023-02-28T03:15:32;-3.40;99.90
49236;DHT22;35067;48.134;8.378;2023-02-28T03:18:55;-3.40;99.90
49236;DHT22;35067;48.134;8.378;2023-02-28T03:24:34;-3.50;99.90
49236;DHT22;35067;48.134;8.378;2023-02-28T03:25:57;-3.50;99.90
49236;DHT22;35067;48.134;8.378;2023-02-28T03:27:25;-3.60;99.90
49236;DHT22;35067;48.134;8.378;2023-02-28T03:28:41;-3.60;99.90
49236;DHT22;35067;48.134;8.378;2023-02-28T03:30:02;-3.50;99.90
49236;DHT22;35067;48.134;8.378;2023-02-28T03:34:10;-3.40;99.90
49236;DHT22;35067;48.134;8.378;2023-02-28T03:35:40;-3.40;99.90
49236;DHT22;35067;48.134;8.378;2023-02-28T03:36:56;-3.60;99.90
49236;DHT22;35067;48.134;8.378;2023-02-28T03:38:12;-3.50;99.90
49236;DHT22;35067;48.134;8.378;2023-02-28T03:39:31;-3.40;99.90
49236;DHT22;35067;48.134;8.378;2023-02-28T03:41:15;-3.30;99.90
49236;DHT22;35067;48.134;8.378;2023-02-28T03:42:25;-3.30;99.90
49236;DHT22;35067;48.134;8.378;2023-02-28T03:43:35;-3.30;99.90
49236;DHT22;35067;48.134;8.378;2023-02-28T03:44:50;-3.20;99.90
49236;DHT22;35067;48.134;8.378;2023-02-28T03:46:02;-3.20;99.90
49236;DHT22;35067;48.134;8.378;2023-02-28T03:47:13;-3.20;99.90
49236;DHT22;35067;48.134;8.378;2023-02-28T03:48:29;-3.30;99.90
49236;DHT22;35067;48.134;8.378;2023-02-28T03:49:45;-3.30;99.90
49236;DHT22;35067;48.134;8.378;2023-02-28T03:51:02;-3.30;99.90
49236;DHT22;35067;48.134;8.378;2023-02-28T03:52:08;-3.40;99.90
49236;DHT22;35067;48.134;8.378;2023-02-28T03:53:35;-3.30;99.90
49236;DHT22;35067;48.134;8.378;2023-02-28T03:54:47;-3.20;99.90
49236;DHT22;35067;48.134;8.378;2023-02-28T03:56:15;-3.20;99.90
49236;DHT22;35067;48.134;8.378;2023-02-28T03:57:56;-3.20;99.90
49236;DHT22;35067;48.134;8.378;2023-02-28T03:59:13;-3.30;99.90
49236;DHT22;35067;48.134;8.378;2023-02-28T04:00:37;-3.40;99.90
49236;DHT22;35067;48.134;8.378;2023-02-28T04:01:47;-3.50;99.90
49236;DHT22;35067;48.134;8.378;2023-02-28T04:02:54;-3.50;99.90
49236;DHT22;35067;48.134;8.378;2023-02-28T04:04:00;-3.50;99.90
49236;DHT22;35067;48.134;8.378;2023-02-28T04:05:05;-3.60;99.90
49236;DHT22;35067;48.134;8.378;2023-02-28T04:06:15;-3.50;99.90
49236;DHT22;35067;48.134;8.378;2023-02-28T04:07:24;-3.70;99.90
49236;DHT22;35067;48.134;8.378;2023-02-28T04:08:30;-3.70;99.90
49236;DHT22;35067;48.134;8.378;2023-02-28T04:09:35;-3.60;99.90
49236;DHT22;35067;48.134;8.378;2023-02-28T04:10:42;-3.60;99.90
49236;DHT22;35067;48.134;8.378;2023-02-28T04:11:52;-3.60;99.90
49236;DHT22;35067;48.134;8.378;2023-02-28T04:12:58;-3.60;99.90
49236;DHT22;35067;48.134;8.378;2023-02-28T04:14:05;-3.60;99.90
49236;DHT22;35067;48.134;8.378;2023-02-28T04:15:09;-3.60;99.90
49236;DHT22;35067;48.134;8.378;2023-02-28T04:16:16;-3.60;99.90
49236;DHT22;35067;48.134;8.378;2023-02-28T04:17:21;-3.70;99.90
49236;DHT22;35067;48.134;8.378;2023-02-28T04:18:26;-3.70;99.90
49236;DHT22;35067;48.134;8.378;2023-02-28T04:19:32;-3.70;99.90
49236;DHT22;35067;48.134;8.378;2023-02-28T04:20:37;-3.60;99.90
49236;DHT22;35067;48.134;8.378;2023-02-28T04:21:51;-3.60;99.90
49236;DHT22;35067;48.134;8.378;2023-02-28T04:22:54;-3.60;99.90
49236;DHT22;35067;48.134;8.378;2023-02-28T04:24:00;-3.60;99.90
49236;DHT22;35067;48.134;8.378;2023-02-28T04:25:06;-3.50;99.90
49236;DHT22;35067;48.134;8.378;2023-02-28T04:26:09;-3.50;99.90
49236;DHT22;35067;48.134;8.378;2023-02-28T04:27:14;-3.50;99.90
49236;DHT22;35067;48.134;8.378;2023-02-28T04:28:20;-3.60;99.90
49236;DHT22;35067;48.134;8.378;2023-02-28T04:29:31;-3.60;99.90
49236;DHT22;35067;48.134;8.378;2023-02-28T04:30:34;-3.60;99.90
49236;DHT22;35067;48.134;8.378;2023-02-28T04:31:38;-3.70;99.90
49236;DHT22;35067;48.134;8.378;2023-02-28T04:32:43;-3.70;99.90
49236;DHT22;35067;48.134;8.378;2023-02-28T04:33:48;-3.60;99.90
49236;DHT22;35067;48.134;8.378;2023-02-28T04:34:54;-3.60;99.90
49236;DHT22;35067;48.134;8.378;2023-02-28T04:36:02;-3.60;99.90
49236;DHT22;35067;48.134;8.378;2023-02-28T04:37:05;-3.60;99.90
49236;DHT22;35067;48.134;8.378;2023-02-28T04:38:09;-3.60;99.90
49236;DHT22;35067;48.134;8.378;2023-02-28T04:39:15;-3.60;99.90
49236;DHT22;35067;48.134;8.378;2023-02-28T04:40:20;-3.60;99.90
49236;DHT22;35067;48.134;8.378;2023-02-28T04:41:26;-3.50;99.90
49236;DHT22;35067;48.134;8.378;2023-02-28T04:42:31;-3.60;99.90
49236;DHT22;35067;48.134;8.378;2023-02-28T04:43:40;-3.60;99.90
49236;DHT22;35067;48.134;8.378;2023-02-28T04:44:46;-3.70;99.90
49236;DHT22;35067;48.134;8.378;2023-02-28T04:45:52;-3.70;99.90
49236;DHT22;35067;48.134;8.378;2023-02-28T04:46:58;-3.70;99.90
49236;DHT22;35067;48.134;8.378;2023-02-28T04:48:03;-3.70;99.90
49236;DHT22;35067;48.134;8.378;2023-02-28T04:49:04;-3.70;99.90
49236;DHT22;35067;48.134;8.378;2023-02-28T04:50:09;-3.60;99.90
49236;DHT22;35067;48.134;8.378;2023-02-28T04:51:17;-3.60;99.90
49236;DHT22;35067;48.134;8.378;2023-02-28T04:52:20;-3.50;99.90
49236;DHT22;35067;48.134;8.378;2023-02-28T04:53:27;-3.50;99.90
49236;DHT22;35067;48.134;8.378;2023-02-28T04:54:32;-3.50;99.90
49236;DHT22;35067;48.134;8.378;2023-02-28T04:55:37;-3.50;99.90
49236;DHT22;35067;48.134;8.378;2023-02-28T04:56:45;-3.60;99.90
49236;DHT22;35067;48.134;8.378;2023-02-28T04:57:50;-3.60;99.90
49236;DHT22;35067;48.134;8.378;2023-02-28T04:58:56;-3.60;99.90
49236;DHT22;35067;48.134;8.378;2023-02-28T05:00:02;-3.60;99.90
49236;DHT22;35067;48.134;8.378;2023-02-28T05:01:24;-3.50;99.90
49236;DHT22;35067;48.134;8.378;2023-02-28T05:02:35;-3.40;99.90
49236;DHT22;35067;48.134;8.378;2023-02-28T05:03:41;-3.50;99.90
49236;DHT22;35067;48.134;8.378;2023-02-28T05:04:47;-3.50;99.90
49236;DHT22;35067;48.134;8.378;2023-02-28T05:05:53;-3.50;99.90
49236;DHT22;35067;48.134;8.378;2023-02-28T05:06:59;-3.50;99.90
49236;DHT22;35067;48.134;8.378;2023-02-28T05:08:04;-3.60;99.90
49236;DHT22;35067;48.134;8.378;2023-02-28T05:09:05;-3.60;99.90
49236;DHT22;35067;48.134;8.378;2023-02-28T05:10:07;-3.60;99.90
49236;DHT22;35067;48.134;8.378;2023-02-28T05:11:22;-3.50;99.90
49236;DHT22;35067;48.134;8.378;2023-02-28T05:12:29;-3.70;99.90
49236;DHT22;35067;48.134;8.378;2023-02-28T05:13:35;-3.70;99.90
49236;DHT22;35067;48.134;8.378;2023-02-28T05:14:41;-3.70;99.90
49236;DHT22;35067;48.134;8.378;2023-02-28T05:15:46;-3.70;99.90
49236;DHT22;35067;48.134;8.378;2023-02-28T05:16:52;-3.80;99.90
49236;DHT22;35067;48.134;8.378;2023-02-28T05:17:58;-3.70;99.90
49236;DHT22;35067;48.134;8.378;2023-02-28T05:19:04;-3.70;99.90
49236;DHT22;35067;48.134;8.378;2023-02-28T05:20:10;-3.60;99.90
49236;DHT22;35067;48.134;8.378;2023-02-28T05:21:33;-3.70;99.90
49236;DHT22;35067;48.134;8.378;2023-02-28T05:22:41;-3.60;99.90
49236;DHT22;35067;48.134;8.378;2023-02-28T05:23:47;-3.70;99.90
49236;DHT22;35067;48.134;8.378;2023-02-28T05:24:52;-3.70;99.90
49236;DHT22;35067;48.134;8.378;2023-02-28T05:25:58;-3.60;99.90
49236;DHT22;35067;48.134;8.378;2023-02-28T05:27:04;-3.60;99.90
49236;DHT22;35067;48.134;8.378;2023-02-28T05:28:09;-3.60;99.90
49236;DHT22;35067;48.134;8.378;2023-02-28T05:29:15;-3.70;99.90
49236;DHT22;35067;48.134;8.378;2023-02-28T05:30:20;-3.60;99.90
49236;DHT22;35067;48.134;8.378;2023-02-28T05:31:26;-3.60;99.90
49236;DHT22;35067;48.134;8.378;2023-02-28T05:32:32;-3.80;99.90
49236;DHT22;35067;48.134;8.378;2023-02-28T05:33:38;-3.90;99.90
49236;DHT22;35067;48.134;8.378;2023-02-28T05:34:44;-3.90;99.90
49236;DHT22;35067;48.134;8.378;2023-02-28T05:35:50;-3.90;99.90
49236;DHT22;35067;48.134;8.378;2023-02-28T05:36:56;-4.00;99.90
49236;DHT22;35067;48.134;8.378;2023-02-28T05:38:01;-4.00;99.90
49236;DHT22;35067;48.134;8.378;2023-02-28T05:39:07;-3.90;99.90
49236;DHT22;35067;48.134;8.378;2023-02-28T05:40:18;-3.80;99.90
49236;DHT22;35067;48.134;8.378;2023-02-28T05:41:25;-3.80;99.90
49236;DHT22;35067;48.134;8.378;2023-02-28T05:42:31;-3.80;99.90
49236;DHT22;35067;48.134;8.378;2023-02-28T05:43:37;-3.80;99.90
49236;DHT22;35067;48.134;8.378;2023-02-28T05:44:43;-3.80;99.90
49236;DHT22;35067;48.134;8.378;2023-02-28T05:45:49;-3.80;99.90
49236;DHT22;35067;48.134;8.378;2023-02-28T05:46:55;-3.80;99.90
49236;DHT22;35067;48.134;8.378;2023-02-28T05:48:00;-3.80;99.90
49236;DHT22;35067;48.134;8.378;2023-02-28T05:49:04;-3.90;99.90
49236;DHT22;35067;48.134;8.378;2023-02-28T05:50:09;-3.90;99.90
49236;DHT22;35067;48.134;8.378;2023-02-28T05:51:16;-3.90;99.90
49236;DHT22;35067;48.134;8.378;2023-02-28T05:52:22;-3.80;99.90
49236;DHT22;35067;48.134;8.378;2023-02-28T05:53:28;-3.80;99.90
49236;DHT22;35067;48.134;8.378;2023-02-28T05:54:34;-3.70;99.90
49236;DHT22;35067;48.134;8.378;2023-02-28T05:55:40;-3.80;99.90
49236;DHT22;35067;48.134;8.378;2023-02-28T05:56:46;-3.80;99.90
49236;DHT22;35067;48.134;8.378;2023-02-28T05:57:52;-3.80;99.90
49236;DHT22;35067;48.134;8.378;2023-02-28T05:58:57;-3.80;99.90
49236;DHT22;35067;48.134;8.378;2023-02-28T06:00:03;-3.80;99.90
49236;DHT22;35067;48.134;8.378;2023-02-28T06:01:35;-3.90;99.90
49236;DHT22;35067;48.134;8.378;2023-02-28T06:02:43;-3.80;99.90
49236;DHT22;35067;48.134;8.378;2023-02-28T06:03:44;-3.80;99.90
49236;DHT22;35067;48.134;8.378;2023-02-28T06:04:50;-3.80;99.90
49236;DHT22;35067;48.134;8.378;2023-02-28T06:05:55;-3.80;99.90
49236;DHT22;35067;48.134;8.378;2023-02-28T06:07:00;-3.70;99.90
49236;DHT22;35067;48.134;8.378;2023-02-28T06:08:05;-3.70;99.90
49236;DHT22;35067;48.134;8.378;2023-02-28T06:09:09;-3.70;99.90
49236;DHT22;35067;48.134;8.378;2023-02-28T06:10:15;-4.10;99.90
49236;DHT22;35067;48.134;8.378;2023-02-28T06:11:20;-3.80;99.90
49236;DHT22;35067;48.134;8.378;2023-02-28T06:12:26;-3.80;99.90
49236;DHT22;35067;48.134;8.378;2023-02-28T06:13:31;-3.90;99.90
49236;DHT22;35067;48.134;8.378;2023-02-28T06:14:37;-3.80;99.90
49236;DHT22;35067;48.134;8.378;2023-02-28T06:15:42;-3.80;99.90
49236;DHT22;35067;48.134;8.378;2023-02-28T06:16:48;-3.80;99.90
49236;DHT22;35067;48.134;8.378;2023-02-28T06:17:53;-3.80;99.90
49236;DHT22;35067;48.134;8.378;2023-02-28T06:19:00;-3.80;99.90
49236;DHT22;35067;48.134;8.378;2023-02-28T06:20:05;-3.70;99.90
49236;DHT22;35067;48.134;8.378;2023-02-28T06:21:09;-3.60;99.90
49236;DHT22;35067;48.134;8.378;2023-02-28T06:22:14;-3.70;99.90
49236;DHT22;35067;48.134;8.378;2023-02-28T06:23:21;-3.90;99.90
49236;DHT22;35067;48.134;8.378;2023-02-28T06:24:26;-4.00;99.90
49236;DHT22;35067;48.134;8.378;2023-02-28T06:25:33;-4.00;99.90
49236;DHT22;35067;48.134;8.378;2023-02-28T06:26:38;-4.10;99.90
49236;DHT22;35067;48.134;8.378;2023-02-28T06:27:44;-4.00;99.90
49236;DHT22;35067;48.134;8.378;2023-02-28T06:28:49;-4.00;99.90
49236;DHT22;35067;48.134;8.378;2023-02-28T06:29:55;-3.90;99.90
49236;DHT22;35067;48.134;8.378;2023-02-28T06:31:06;-3.90;99.90
49236;DHT22;35067;48.134;8.378;2023-02-28T06:32:14;-3.80;99.90
49236;DHT22;35067;48.134;8.378;2023-02-28T06:33:20;-3.70;99.90
49236;DHT22;35067;48.134;8.378;2023-02-28T06:34:25;-3.80;99.90
49236;DHT22;35067;48.134;8.378;2023-02-28T06:35:31;-3.80;99.90
49236;DHT22;35067;48.134;8.378;2023-02-28T06:36:41;-3.90;99.90
49236;DHT22;35067;48.134;8.378;2023-02-28T06:37:42;-3.90;99.90
49236;DHT22;35067;48.134;8.378;2023-02-28T06:38:47;-3.90;99.90
49236;DHT22;35067;48.134;8.378;2023-02-28T06:39:59;-3.80;99.90
49236;DHT22;35067;48.134;8.378;2023-02-28T06:41:05;-3.90;99.90
49236;DHT22;35067;48.134;8.378;2023-02-28T06:42:11;-3.80;99.90
49236;DHT22;35067;48.134;8.378;2023-02-28T06:43:16;-3.80;99.90
49236;DHT22;35067;48.134;8.378;2023-02-28T06:44:23;-3.70;99.90
49236;DHT22;35067;48.134;8.378;2023-02-28T06:45:29;-3.60;99.90
49236;DHT22;35067;48.134;8.378;2023-02-28T06:46:35;-3.60;99.90
49236;DHT22;35067;48.134;8.378;2023-02-28T06:47:41;-3.50;99.90
49236;DHT22;35067;48.134;8.378;2023-02-28T06:48:47;-3.30;99.90
49236;DHT22;35067;48.134;8.378;2023-02-28T06:49:53;-3.30;99.90
49236;DHT22;35067;48.134;8.378;2023-02-28T06:51:19;-3.30;99.90
49236;DHT22;35067;48.134;8.378;2023-02-28T06:52:29;-3.30;99.90
49236;DHT22;35067;48.134;8.378;2023-02-28T06:53:35;-3.30;99.90
49236;DHT22;35067;48.134;8.378;2023-02-28T06:54:41;-3.30;99.90
49236;DHT22;35067;48.134;8.378;2023-02-28T06:55:47;-3.30;99.90
49236;DHT22;35067;48.134;8.378;2023-02-28T06:56:53;-3.40;99.90
49236;DHT22;35067;48.134;8.378;2023-02-28T06:57:59;-3.40;99.90
49236;DHT22;35067;48.134;8.378;2023-02-28T06:59:04;-3.30;99.90
49236;DHT22;35067;48.134;8.378;2023-02-28T07:00:10;-3.30;99.90
49236;DHT22;35067;48.134;8.378;2023-02-28T07:01:16;-3.30;99.90
49236;DHT22;35067;48.134;8.378;2023-02-28T07:02:22;-3.20;99.90
49236;DHT22;35067;48.134;8.378;2023-02-28T07:03:28;-3.10;99.90
49236;DHT22;35067;48.134;8.378;2023-02-28T07:04:34;-3.20;99.90
49236;DHT22;35067;48.134;8.378;2023-02-28T07:05:39;-3.30;99.90
49236;DHT22;35067;48.134;8.378;2023-02-28T07:06:45;-3.40;99.90
49236;DHT22;35067;48.134;8.378;2023-02-28T07:07:51;-3.40;99.90
49236;DHT22;35067;48.134;8.378;2023-02-28T07:08:58;-3.40;99.90
49236;DHT22;35067;48.134;8.378;2023-02-28T07:10:04;-3.40;99.90
49236;DHT22;35067;48.134;8.378;2023-02-28T07:11:09;-3.30;99.90
49236;DHT22;35067;48.134;8.378;2023-02-28T07:12:15;-3.30;99.90
49236;DHT22;35067;48.134;8.378;2023-02-28T07:13:22;-3.30;99.90
49236;DHT22;35067;48.134;8.378;2023-02-28T07:14:28;-3.20;99.90
49236;DHT22;35067;48.134;8.378;2023-02-28T07:15:35;-3.30;99.90
49236;DHT22;35067;48.134;8.378;2023-02-28T07:16:41;-3.40;99.90
49236;DHT22;35067;48.134;8.378;2023-02-28T07:17:47;-3.30;99.90
49236;DHT22;35067;48.134;8.378;2023-02-28T07:18:53;-3.30;99.90
49236;DHT22;35067;48.134;8.378;2023-02-28T07:20:00;-3.20;99.90
49236;DHT22;35067;48.134;8.378;2023-02-28T07:21:07;-3.20;99.90
49236;DHT22;35067;48.134;8.378;2023-02-28T07:22:09;-3.20;99.90
49236;DHT22;35067;48.134;8.378;2023-02-28T07:23:15;-3.20;99.90
49236;DHT22;35067;48.134;8.378;2023-02-28T07:24:21;-3.30;99.90
49236;DHT22;35067;48.134;8.378;2023-02-28T07:25:29;-3.20;99.90
49236;DHT22;35067;48.134;8.378;2023-02-28T07:26:34;-3.10;99.90
49236;DHT22;35067;48.134;8.378;2023-02-28T07:27:40;-3.00;99.90
49236;DHT22;35067;48.134;8.378;2023-02-28T07:28:47;-2.90;99.90
49236;DHT22;35067;48.134;8.378;2023-02-28T07:29:54;-2.90;99.90
49236;DHT22;35067;48.134;8.378;2023-02-28T07:31:04;-2.80;99.90
49236;DHT22;35067;48.134;8.378;2023-02-28T07:32:09;-2.70;99.90
49236;DHT22;35067;48.134;8.378;2023-02-28T07:33:15;-2.70;99.90
49236;DHT22;35067;48.134;8.378;2023-02-28T07:34:22;-2.70;99.90
49236;DHT22;35067;48.134;8.378;2023-02-28T07:35:28;-2.60;99.90
49236;DHT22;35067;48.134;8.378;2023-02-28T07:36:33;-2.70;99.90
49236;DHT22;35067;48.134;8.378;2023-02-28T07:37:39;-2.70;99.90
49236;DHT22;35067;48.134;8.378;2023-02-28T07:38:47;-2.80;99.90